createdAt,value
2022-12-17T00:01:51.279Z,-2.86
2022-12-17T00:04:37.955Z,-2.85
2022-12-17T00:07:23.522Z,-3.08
2022-12-17T00:10:08.870Z,-3.04
2022-12-17T00:12:56.475Z,-2.96
2022-12-17T00:15:42.977Z,-2.97
2022-12-17T00:18:30.705Z,-3.01
2022-12-17T00:21:18.514Z,-3.03
2022-12-17T00:24:05.230Z,-3.06
2022-12-17T00:26:51.444Z,-3.34
2022-12-17T00:29:37.882Z,-3.27
2022-12-17T00:32:24.028Z,-3.22
2022-12-17T00:35:10.062Z,-3.21
2022-12-17T00:37:55.881Z,-3.15
2022-12-17T00:40:42.743Z,-3.34
2022-12-17T00:43:32.043Z,-3.22
2022-12-17T00:46:18.069Z,-3.28
2022-12-17T00:49:04.239Z,-3.32
2022-12-17T00:51:49.889Z,-3.35
2022-12-17T00:54:35.683Z,-3.80
2022-12-17T00:57:21.716Z,-3.38
2022-12-17T01:00:07.316Z,-3.31
2022-12-17T01:02:53.017Z,-3.39
2022-12-17T01:05:39.525Z,-3.36
2022-12-17T01:08:30.507Z,-3.38
2022-12-17T01:11:26.651Z,-3.42
2022-12-17T01:14:12.646Z,-3.20
2022-12-17T01:16:58.256Z,-3.29
2022-12-17T01:19:43.895Z,-3.19
2022-12-17T01:22:29.576Z,-3.35
2022-12-17T01:25:15.172Z,-3.35
2022-12-17T01:28:00.805Z,-3.31
2022-12-17T01:30:46.582Z,-3.26
2022-12-17T01:33:32.293Z,-3.25
2022-12-17T01:36:17.770Z,-3.09
2022-12-17T01:39:03.597Z,-3.15
2022-12-17T01:41:49.083Z,-3.06
2022-12-17T01:45:02.394Z,-3.08
2022-12-17T01:48:04.411Z,-3.39
2022-12-17T01:50:55.496Z,-3.07
2022-12-17T01:53:45.012Z,-3.10
2022-12-17T01:56:31.129Z,-3.00
2022-12-17T01:59:17.803Z,-2.93
2022-12-17T02:02:03.462Z,-2.92
2022-12-17T02:04:49.966Z,-2.92
2022-12-17T02:07:54.401Z,-2.90
2022-12-17T02:10:52.721Z,-2.92
2022-12-17T02:13:48.933Z,-3.39
2022-12-17T02:16:55.033Z,-2.95
2022-12-17T02:20:18.707Z,-2.84
2022-12-17T02:23:22.681Z,-3.80
2022-12-17T02:26:22.871Z,-3.08
2022-12-17T02:29:11.145Z,-3.17
2022-12-17T02:32:01.310Z,-3.23
2022-12-17T02:34:48.271Z,-3.20
2022-12-17T02:37:33.703Z,-3.26
2022-12-17T02:40:19.424Z,-3.95
2022-12-17T02:43:08.166Z,-3.33
2022-12-17T02:45:56.342Z,-3.43
2022-12-17T02:48:43.460Z,-3.56
2022-12-17T02:51:29.328Z,-3.82
2022-12-17T02:54:14.873Z,-3.51
2022-12-17T02:57:00.496Z,-3.42
2022-12-17T02:59:46.160Z,-3.62
2022-12-17T03:02:35.145Z,-3.95
2022-12-17T03:05:44.065Z,-3.67
2022-12-17T03:08:26.771Z,-3.45
2022-12-17T03:11:12.463Z,-3.46
2022-12-17T03:13:57.945Z,-3.38
2022-12-17T03:16:43.748Z,-3.26
2022-12-17T03:19:29.302Z,-3.27
2022-12-17T03:22:14.993Z,-3.26
2022-12-17T03:25:00.540Z,-3.30
2022-12-17T03:27:45.964Z,-3.29
2022-12-17T03:30:35.674Z,-3.43
2022-12-17T03:33:22.292Z,-3.48
2022-12-17T03:36:12.472Z,-3.82
2022-12-17T03:39:21.108Z,-3.60
2022-12-17T03:42:06.791Z,-3.54
2022-12-17T03:44:52.528Z,-3.69
2022-12-17T03:47:38.266Z,-3.58
2022-12-17T03:50:24.310Z,-3.58
2022-12-17T03:53:10.064Z,-3.60
2022-12-17T03:55:55.550Z,-3.66
2022-12-17T03:58:41.301Z,-3.61
2022-12-17T04:01:26.890Z,-3.55
2022-12-17T04:04:12.668Z,-3.60
2022-12-17T04:06:58.119Z,-3.42
2022-12-17T04:09:43.584Z,-3.45
2022-12-17T04:12:29.240Z,-3.45
2022-12-17T04:15:14.645Z,-3.60
2022-12-17T04:18:00.397Z,-3.28
2022-12-17T04:20:46.017Z,-3.25
2022-12-17T04:23:31.731Z,-3.35
2022-12-17T04:26:17.587Z,-3.21
2022-12-17T04:29:03.157Z,-3.28
2022-12-17T04:31:48.541Z,-3.26
2022-12-17T04:34:33.897Z,-3.21
2022-12-17T04:37:19.480Z,-3.34
2022-12-17T04:40:05.000Z,-3.27
2022-12-17T04:42:50.579Z,-3.23
2022-12-17T04:45:36.126Z,-3.38
2022-12-17T04:48:24.257Z,-3.30
2022-12-17T04:51:09.993Z,-3.28
2022-12-17T04:53:55.703Z,-3.28
2022-12-17T04:56:41.534Z,-3.25
2022-12-17T04:59:27.030Z,-3.30
2022-12-17T05:02:12.573Z,-3.29
2022-12-17T05:04:58.315Z,-3.32
2022-12-17T05:07:43.776Z,-3.27
2022-12-17T05:10:29.317Z,-3.50
2022-12-17T05:13:18.698Z,-3.29
2022-12-17T05:16:05.094Z,-3.83
2022-12-17T05:18:51.139Z,-3.40
2022-12-17T05:21:36.713Z,-3.49
2022-12-17T05:24:22.272Z,-3.30
2022-12-17T05:27:08.158Z,-3.45
2022-12-17T05:29:53.590Z,-3.31
2022-12-17T05:32:39.111Z,-3.25
2022-12-17T05:35:25.027Z,-3.60
2022-12-17T05:38:10.914Z,-3.52
2022-12-17T05:40:56.473Z,-3.22
2022-12-17T05:43:42.058Z,-3.31
2022-12-17T05:46:27.600Z,-3.16
2022-12-17T05:49:13.221Z,-3.17
2022-12-17T05:51:58.934Z,-3.20
2022-12-17T05:54:44.610Z,-4.21
2022-12-17T05:57:30.197Z,-3.40
2022-12-17T06:00:15.823Z,-3.26
2022-12-17T06:03:01.487Z,-3.50
2022-12-17T06:05:47.435Z,-3.13
2022-12-17T06:08:33.066Z,-3.17
2022-12-17T06:11:18.989Z,-3.07
2022-12-17T06:14:06.107Z,-3.23
2022-12-17T06:16:51.651Z,-2.94
2022-12-17T06:19:37.225Z,-3.01
2022-12-17T06:22:22.995Z,-2.99
2022-12-17T06:25:08.483Z,-3.05
2022-12-17T06:27:54.178Z,-3.06
2022-12-17T06:30:39.765Z,-3.08
2022-12-17T06:33:27.376Z,-3.13
2022-12-17T06:36:19.701Z,-3.10
2022-12-17T06:39:07.221Z,-3.03
2022-12-17T06:41:52.772Z,-3.04
2022-12-17T06:44:40.323Z,-2.94
2022-12-17T06:47:26.076Z,-2.85
2022-12-17T06:50:11.879Z,-2.87
2022-12-17T06:52:57.311Z,-3.19
2022-12-17T06:55:42.723Z,-3.63
2022-12-17T06:58:28.689Z,-3.23
2022-12-17T07:01:14.375Z,-3.05
2022-12-17T07:04:01.088Z,-2.88
2022-12-17T07:06:46.594Z,-2.92
2022-12-17T07:09:32.044Z,-3.28
2022-12-17T07:12:17.798Z,-3.28
2022-12-17T07:15:03.319Z,-2.87
2022-12-17T07:17:50.405Z,-3.06
2022-12-17T07:20:36.108Z,-3.09
2022-12-17T07:23:21.842Z,-2.81
2022-12-17T07:39:39.017Z,-2.43
2022-12-17T07:42:24.641Z,-2.45
2022-12-17T07:45:10.303Z,-2.42
2022-12-17T07:47:55.918Z,-2.49
2022-12-17T07:50:41.372Z,-2.58
2022-12-17T07:53:27.145Z,-2.60
2022-12-17T07:56:12.838Z,-2.66
2022-12-17T07:58:58.443Z,-2.68
2022-12-17T08:01:44.251Z,-2.57
2022-12-17T08:04:29.872Z,-2.50
2022-12-17T08:07:15.579Z,-2.50
2022-12-17T08:10:01.338Z,-2.46
2022-12-17T08:12:47.063Z,-2.50
2022-12-17T08:15:32.738Z,-2.36
2022-12-17T08:31:10.474Z,-2.05
2022-12-17T08:33:55.947Z,-1.74
2022-12-17T08:36:41.598Z,-1.84
2022-12-17T08:39:27.407Z,-1.98
2022-12-17T08:42:13.040Z,-2.26
2022-12-17T08:44:58.414Z,-2.07
2022-12-17T08:47:44.246Z,-2.18
2022-12-17T08:50:29.942Z,-2.06
2022-12-17T08:53:23.145Z,-1.96
2022-12-17T08:56:08.817Z,-2.05
2022-12-17T08:58:59.147Z,-2.06
2022-12-17T09:01:44.879Z,-1.93
2022-12-17T09:04:30.665Z,-1.85
2022-12-17T09:07:36.428Z,-1.83
2022-12-17T09:10:22.837Z,-1.80
2022-12-17T09:13:08.637Z,-1.87
2022-12-17T09:15:54.366Z,-1.85
2022-12-17T09:18:41.084Z,-1.96
2022-12-17T09:21:26.855Z,-2.09
2022-12-17T09:24:12.604Z,-1.97
2022-12-17T09:26:58.284Z,-1.90
2022-12-17T09:29:43.951Z,-1.85
2022-12-17T09:32:29.610Z,-1.76
2022-12-17T09:35:15.255Z,-1.68
2022-12-17T09:38:00.811Z,-1.62
2022-12-17T09:40:48.654Z,-1.58
2022-12-17T09:43:50.632Z,-1.66
2022-12-17T09:46:45.359Z,-1.61
2022-12-17T09:49:38.797Z,-1.89
2022-12-17T09:53:02.893Z,-1.76
2022-12-17T09:55:53.386Z,-1.73
2022-12-17T09:58:44.674Z,-1.63
2022-12-17T10:01:36.402Z,-1.61
2022-12-17T10:04:33.534Z,-1.78
2022-12-17T10:07:20.700Z,-1.54
2022-12-17T10:10:10.268Z,-1.51
2022-12-17T10:12:55.975Z,-1.50
2022-12-17T10:15:41.646Z,-1.48
2022-12-17T10:18:31.042Z,-1.53
2022-12-17T10:21:29.703Z,-1.46
2022-12-17T10:24:26.082Z,-1.53
2022-12-17T10:27:11.774Z,-1.52
2022-12-17T10:29:59.970Z,-1.46
2022-12-17T10:32:46.781Z,-1.48
2022-12-17T10:35:53.172Z,-1.47
2022-12-17T10:38:49.664Z,-1.52
2022-12-17T10:41:49.821Z,-1.59
2022-12-17T10:44:52.515Z,-1.51
2022-12-17T10:47:40.593Z,-1.51
2022-12-17T10:50:31.115Z,-1.48
2022-12-17T10:53:17.566Z,-1.45
2022-12-17T15:04:05.904Z,-0.45
2022-12-17T15:06:32.901Z,-0.48
2022-12-17T15:08:59.872Z,-0.72
2022-12-17T15:11:26.854Z,-1.03
2022-12-17T15:13:56.536Z,-1.34
2022-12-17T15:16:24.445Z,-1.60
2022-12-17T15:18:51.471Z,-1.82
2022-12-17T15:21:19.707Z,-1.90
2022-12-17T15:23:47.843Z,-1.91
2022-12-17T15:26:15.417Z,-2.26
2022-12-17T15:28:42.996Z,-2.16
2022-12-17T15:31:12.576Z,-2.34
2022-12-17T15:33:40.350Z,-2.35
2022-12-17T15:36:08.176Z,-2.45
2022-12-17T15:38:35.474Z,-2.46
2022-12-17T15:41:24.252Z,-2.39
2022-12-17T15:43:51.281Z,-2.44
2022-12-17T15:46:18.629Z,-2.46
2022-12-17T15:48:50.083Z,-2.47
2022-12-17T15:51:19.748Z,-2.39
2022-12-17T15:53:48.199Z,-2.48
2022-12-17T15:56:25.789Z,-2.51
2022-12-17T15:58:53.440Z,-2.50
2022-12-17T16:01:20.570Z,-2.51
2022-12-17T16:03:47.719Z,-2.53
2022-12-17T16:06:17.943Z,-2.54
2022-12-17T16:08:45.081Z,-2.78
2022-12-17T16:11:14.347Z,-2.51
2022-12-17T16:13:41.406Z,-2.40
2022-12-17T16:16:09.030Z,-2.53
2022-12-17T16:18:38.732Z,-2.53
2022-12-17T16:21:07.838Z,-2.74
2022-12-17T16:23:35.730Z,-2.49
2022-12-17T16:26:04.964Z,-2.58
2022-12-17T16:28:32.423Z,-2.53
2022-12-17T16:31:08.228Z,-2.54
2022-12-17T16:33:37.690Z,-2.67
2022-12-17T16:36:06.543Z,-2.70
2022-12-17T16:38:34.191Z,-2.86
2022-12-17T16:41:03.386Z,-2.70
2022-12-17T16:43:34.636Z,-2.59
2022-12-17T16:46:02.677Z,-2.83
2022-12-17T16:48:37.583Z,-2.44
2022-12-17T16:51:26.545Z,-2.51
2022-12-17T16:53:56.018Z,-2.48
2022-12-17T16:56:26.302Z,-2.53
2022-12-17T16:58:54.037Z,-2.62
2022-12-17T17:01:22.743Z,-2.49
2022-12-17T17:03:50.427Z,-2.64
2022-12-17T17:06:18.984Z,-2.61
2022-12-17T17:08:46.536Z,-2.64
2022-12-17T17:11:21.329Z,-2.60
2022-12-17T17:13:54.192Z,-2.64
2022-12-17T17:16:24.308Z,-2.61
2022-12-17T17:18:52.330Z,-2.57
2022-12-17T17:21:19.223Z,-2.45
2022-12-17T17:23:48.024Z,-2.42
2022-12-17T17:26:16.194Z,-2.48
2022-12-17T17:28:44.771Z,-2.45
2022-12-17T17:31:14.036Z,-2.53
2022-12-17T17:33:44.577Z,-2.46
2022-12-17T17:36:13.928Z,-2.54
2022-12-17T17:38:41.857Z,-3.01
2022-12-17T17:41:11.630Z,-2.84
2022-12-17T17:43:39.484Z,-2.83
2022-12-17T17:46:14.080Z,-2.94
2022-12-17T17:48:42.624Z,-2.75
2022-12-17T17:51:38.960Z,-2.65
2022-12-17T17:54:14.231Z,-2.66
2022-12-17T17:56:42.406Z,-2.61
2022-12-17T17:59:15.974Z,-2.67
2022-12-17T18:01:46.327Z,-2.99
2022-12-17T18:04:16.938Z,-2.82
2022-12-17T18:07:02.787Z,-3.01
2022-12-17T18:09:32.663Z,-2.71
2022-12-17T18:12:19.513Z,-2.66
2022-12-17T18:15:12.159Z,-2.65
2022-12-17T18:17:33.462Z,-2.64
2022-12-17T18:20:00.474Z,-2.58
2022-12-17T18:22:28.512Z,-2.53
2022-12-17T18:24:55.493Z,-2.61
2022-12-17T18:27:22.686Z,-2.61
2022-12-17T18:29:49.671Z,-2.46
2022-12-17T18:32:16.732Z,-2.43
2022-12-17T18:34:43.792Z,-2.66
2022-12-17T18:37:10.901Z,-2.55
2022-12-17T18:39:38.217Z,-2.64
2022-12-17T18:42:23.989Z,-2.54
2022-12-17T18:44:51.057Z,-2.60
2022-12-17T18:47:19.085Z,-2.77
2022-12-17T18:49:46.152Z,-2.42
2022-12-17T18:52:16.777Z,-2.40
2022-12-17T18:54:45.483Z,-2.60
2022-12-17T18:57:12.458Z,-2.35
2022-12-17T18:59:41.132Z,-2.64
2022-12-17T19:02:12.887Z,-2.26
2022-12-17T19:04:40.703Z,-2.30
2022-12-17T19:07:07.684Z,-2.31
2022-12-17T19:09:35.829Z,-2.47
2022-12-17T19:12:04.849Z,-2.54
2022-12-17T19:14:32.054Z,-2.40
2022-12-17T19:16:59.978Z,-2.46
2022-12-17T19:19:27.429Z,-2.51
2022-12-17T19:21:55.442Z,-2.54
2022-12-17T19:24:23.042Z,-2.56
2022-12-17T19:26:51.109Z,-2.61
2022-12-17T19:29:20.560Z,-2.59
2022-12-17T19:31:48.540Z,-2.62
2022-12-17T19:34:17.466Z,-2.57
2022-12-17T19:36:45.233Z,-2.58
2022-12-17T19:39:17.607Z,-2.59
2022-12-17T19:41:45.235Z,-2.59
2022-12-17T19:44:14.545Z,-2.65
2022-12-17T19:46:41.916Z,-2.58
2022-12-17T19:49:12.023Z,-2.56
2022-12-17T19:51:44.506Z,-2.68
2022-12-17T19:54:15.539Z,-2.72
2022-12-17T19:56:44.906Z,-2.62
2022-12-17T19:59:12.973Z,-3.02
2022-12-17T20:01:45.814Z,-2.62
2022-12-17T20:04:14.545Z,-2.69
2022-12-17T20:06:43.007Z,-2.63
2022-12-17T20:09:10.582Z,-2.67
2022-12-17T20:11:37.603Z,-2.68
2022-12-17T20:14:10.606Z,-2.75
2022-12-17T20:16:43.369Z,-2.80
2022-12-17T20:19:19.673Z,-2.72
2022-12-17T20:21:47.515Z,-2.69
2022-12-17T20:24:15.335Z,-2.79
2022-12-17T20:26:43.407Z,-2.75
2022-12-17T20:29:10.544Z,-2.71
2022-12-17T20:31:38.932Z,-2.64
2022-12-17T20:34:08.247Z,-2.73
2022-12-17T20:36:35.971Z,-2.80
2022-12-17T20:39:03.474Z,-2.81
2022-12-17T20:41:31.943Z,-2.76
2022-12-17T20:44:13.181Z,-2.70
2022-12-17T20:46:43.859Z,-2.79
2022-12-17T20:49:13.098Z,-2.83
2022-12-17T20:51:40.588Z,-2.81
2022-12-17T20:54:08.550Z,-2.78
2022-12-17T20:56:36.319Z,-2.80
2022-12-17T20:59:06.624Z,-2.79
2022-12-17T21:01:36.052Z,-2.75
2022-12-17T21:04:04.044Z,-2.76
2022-12-17T21:06:38.110Z,-2.92
2022-12-17T21:09:05.571Z,-2.86
2022-12-17T21:11:35.003Z,-2.79
2022-12-17T21:14:10.314Z,-2.81
2022-12-17T21:16:39.278Z,-2.79
2022-12-17T21:19:08.115Z,-2.78
2022-12-17T21:21:37.798Z,-2.76
2022-12-17T21:24:05.636Z,-2.96
2022-12-17T21:26:35.411Z,-2.81
2022-12-17T21:29:04.321Z,-2.98
2022-12-17T21:31:40.844Z,-2.99
2022-12-17T21:34:12.774Z,-3.15
2022-12-17T21:36:39.806Z,-2.81
2022-12-17T21:39:08.793Z,-2.83
2022-12-17T21:41:43.659Z,-2.86
2022-12-17T21:44:15.411Z,-2.94
2022-12-17T21:46:48.913Z,-2.83
2022-12-17T21:49:18.200Z,-2.92
2022-12-17T21:51:45.395Z,-2.80
2022-12-17T21:54:17.308Z,-2.82
2022-12-17T21:56:46.699Z,-2.84
2022-12-17T21:59:13.718Z,-2.78
2022-12-17T22:01:40.818Z,-2.86
2022-12-17T22:04:07.998Z,-2.87
2022-12-17T22:06:44.682Z,-2.90
2022-12-17T22:09:27.897Z,-2.95
2022-12-17T22:12:22.937Z,-2.79
2022-12-17T22:14:49.990Z,-2.81
2022-12-17T22:17:16.942Z,-2.81
2022-12-17T22:19:43.888Z,-2.80
2022-12-17T22:22:10.980Z,-2.78
2022-12-17T22:24:37.975Z,-2.86
2022-12-17T22:27:05.105Z,-2.86
2022-12-17T22:29:55.189Z,-2.85
2022-12-17T22:32:41.049Z,-2.86
2022-12-17T22:36:18.992Z,-3.27
2022-12-17T22:40:15.932Z,-2.91
2022-12-17T22:44:33.308Z,-2.95
2022-12-17T22:44:37.715Z,-3.18
2022-12-17T22:46:20.363Z,-2.81
2022-12-17T22:48:47.598Z,-3.12
2022-12-17T22:51:16.281Z,-3.03
2022-12-17T22:53:54.941Z,-2.94
2022-12-17T22:56:41.531Z,-3.00
2022-12-17T22:59:16.851Z,-2.98
2022-12-17T23:01:44.764Z,-3.00
2022-12-17T23:04:13.869Z,-2.92
2022-12-17T23:06:41.914Z,-3.06
2022-12-17T23:09:08.904Z,-3.21
2022-12-17T23:11:35.902Z,-3.08
2022-12-17T23:14:03.340Z,-3.26
2022-12-17T23:16:30.443Z,-3.20
2022-12-17T23:19:01.063Z,-3.10
2022-12-17T23:21:28.631Z,-3.21
2022-12-17T23:23:57.164Z,-3.19
2022-12-17T23:26:30.111Z,-3.19
2022-12-17T23:29:03.223Z,-3.21
2022-12-17T23:31:35.437Z,-3.18
2022-12-17T23:34:03.485Z,-3.21
2022-12-17T23:36:30.502Z,-3.23
2022-12-17T23:38:57.683Z,-3.29
2022-12-17T23:41:28.322Z,-3.23
2022-12-17T23:43:55.763Z,-3.36
2022-12-17T23:46:25.213Z,-3.41
2022-12-17T23:48:52.304Z,-3.53
2022-12-17T23:51:21.799Z,-3.39
2022-12-17T23:53:49.236Z,-3.49
2022-12-17T23:56:23.303Z,-3.39
2022-12-17T23:58:53.810Z,-3.41
